Time;durP1;ratioP1;P1;durP2;ratioP2;P2;SDS_P1;SDS_P2;PMS_P1;PMS_P2;Temp;Humidity;BMP_temperature;BMP_pressure;BME280_temperature;BME280_humidity;BME280_pressure;Samples;Min_cycle;Max_cycle;Signal;HPM_P1;HPM_P2
2021/05/27 00:02:12;;;;;;;2.80;1.35;;;10.10;99.90;;;;;;6200852;28;20054;-78
2021/05/27 00:05:15;;;;;;;1.83;1.60;;;10.20;99.90;;;;;;6200096;28;20062;-77
2021/05/27 00:08:16;;;;;;;2.85;1.55;;;10.20;99.90;;;;;;6199932;28;20042;-77
2021/05/27 00:11:17;;;;;;;1.67;1.38;;;10.30;99.90;;;;;;6199597;28;20134;-78
2021/05/27 00:14:19;;;;;;;2.38;1.55;;;10.20;99.90;;;;;;6200014;28;20050;-77
2021/05/27 00:17:21;;;;;;;1.48;1.35;;;10.30;99.90;;;;;;6202140;28;20542;-77
2021/05/27 00:20:23;;;;;;;1.30;1.20;;;10.30;99.90;;;;;;6202217;28;20134;-76
2021/05/27 00:23:24;;;;;;;1.52;1.30;;;10.40;99.90;;;;;;6202495;28;20129;-77
2021/05/27 00:26:26;;;;;;;2.95;1.80;;;10.40;99.90;;;;;;6202892;28;20073;-77
2021/05/27 00:29:28;;;;;;;1.63;1.30;;;10.40;99.90;;;;;;6216779;28;20117;-77
2021/05/27 00:32:29;;;;;;;1.60;1.50;;;10.40;99.90;;;;;;6214178;28;20092;-75
2021/05/27 00:35:30;;;;;;;1.40;1.30;;;10.30;99.90;;;;;;6200096;28;20076;-77
2021/05/27 00:38:32;;;;;;;1.10;1.10;;;10.30;99.90;;;;;;6199519;28;20090;-77
2021/05/27 00:41:33;;;;;;;4.00;1.67;;;10.30;99.90;;;;;;6198508;28;20074;-77
2021/05/27 00:44:35;;;;;;;2.70;1.42;;;10.40;99.90;;;;;;6198631;28;20074;-76
2021/05/27 00:47:37;;;;;;;8.05;1.85;;;10.40;99.90;;;;;;6198140;28;20067;-77
2021/05/27 00:50:41;;;;;;;1.42;1.33;;;10.40;99.90;;;;;;6198460;28;20077;-76
2021/05/27 00:53:42;;;;;;;3.22;2.28;;;10.40;99.90;;;;;;6198287;28;20046;-76
2021/05/27 00:56:44;;;;;;;1.75;1.23;;;10.40;99.90;;;;;;6198827;28;20073;-77
2021/05/27 00:59:47;;;;;;;1.70;1.27;;;10.50;99.90;;;;;;6195687;28;20053;-77
2021/05/27 01:02:48;;;;;;;3.75;1.83;;;10.50;99.90;;;;;;6198596;28;20050;-77
2021/05/27 01:05:49;;;;;;;1.95;1.60;;;10.40;99.90;;;;;;6197955;28;20066;-77
2021/05/27 01:08:51;;;;;;;1.77;1.67;;;10.40;99.90;;;;;;6197473;28;20135;-76
2021/05/27 01:11:52;;;;;;;2.60;2.17;;;10.40;99.90;;;;;;6198058;28;20042;-76
2021/05/27 01:18:16;;;;;;;1.83;1.48;;;10.40;99.90;;;;;;6223173;28;20050;-76
2021/05/27 01:21:20;;;;;;;1.55;1.45;;;10.40;99.90;;;;;;6221909;28;20534;-76
2021/05/27 01:24:22;;;;;;;2.83;1.80;;;10.40;99.90;;;;;;6222180;28;20418;-77
2021/05/27 01:27:23;;;;;;;2.53;1.67;;;10.40;99.90;;;;;;6222302;28;20176;-77
2021/05/27 01:30:25;;;;;;;1.90;1.73;;;10.40;99.90;;;;;;6218645;28;20125;-76
2021/05/27 01:33:27;;;;;;;1.83;1.67;;;10.30;99.90;;;;;;6219028;28;20133;-77
2021/05/27 01:36:28;;;;;;;2.42;1.65;;;10.30;99.90;;;;;;6225483;28;20139;-76
2021/05/27 01:39:30;;;;;;;1.85;1.45;;;10.30;99.90;;;;;;6226555;28;20443;-77
2021/05/27 01:42:32;;;;;;;2.40;2.00;;;10.30;99.90;;;;;;6227220;28;20045;-77
2021/05/27 01:45:33;;;;;;;2.17;1.98;;;10.30;99.90;;;;;;6226775;28;20089;-76
2021/05/27 01:48:34;;;;;;;2.78;1.98;;;10.40;99.90;;;;;;6226466;28;20138;-77
2021/05/27 01:51:36;;;;;;;2.75;2.25;;;10.30;99.90;;;;;;6226571;28;20142;-77
2021/05/27 01:54:38;;;;;;;2.35;2.22;;;10.30;99.90;;;;;;6226980;28;20130;-76
2021/05/27 01:57:40;;;;;;;2.08;1.90;;;10.30;99.90;;;;;;6226206;28;20050;-76
2021/05/27 02:00:42;;;;;;;4.50;3.65;;;10.30;99.90;;;;;;6226212;28;20069;-76
2021/05/27 02:03:43;;;;;;;2.03;1.73;;;10.30;99.90;;;;;;6226304;28;20066;-76
2021/05/27 02:06:45;;;;;;;2.63;1.92;;;10.30;99.90;;;;;;6226839;28;20049;-76
2021/05/27 02:09:47;;;;;;;2.28;2.08;;;10.20;99.90;;;;;;6225763;28;20149;-77
2021/05/27 02:12:48;;;;;;;2.17;1.98;;;10.20;99.90;;;;;;6226215;28;20195;-77
2021/05/27 02:15:50;;;;;;;3.70;2.30;;;10.20;99.90;;;;;;6226082;28;20046;-77
2021/05/27 02:18:52;;;;;;;2.53;2.33;;;10.30;99.90;;;;;;6225620;28;20111;-76
2021/05/27 02:21:53;;;;;;;2.60;2.38;;;10.20;99.90;;;;;;6226524;28;20129;-77
2021/05/27 02:24:56;;;;;;;3.90;1.95;;;10.30;99.90;;;;;;6225729;28;20080;-76
2021/05/27 02:27:57;;;;;;;3.28;1.75;;;10.30;99.90;;;;;;6226108;28;20113;-77
2021/05/27 02:30:58;;;;;;;1.83;1.70;;;10.30;99.90;;;;;;6218639;28;20128;-76
2021/05/27 02:33:59;;;;;;;1.75;1.65;;;10.30;99.90;;;;;;6220096;28;20530;-77
2021/05/27 02:37:01;;;;;;;3.50;1.95;;;10.20;99.90;;;;;;6225342;28;20135;-77
2021/05/27 02:40:05;;;;;;;3.55;2.20;;;10.20;99.90;;;;;;6225177;28;20044;-77
2021/05/27 02:43:07;;;;;;;5.78;2.22;;;10.10;99.90;;;;;;6225296;28;20092;-77
2021/05/27 02:46:09;;;;;;;5.68;2.83;;;10.00;99.90;;;;;;6226196;28;20145;-76
2021/05/27 02:49:10;;;;;;;2.20;2.03;;;9.80;99.90;;;;;;6224938;28;20072;-76
2021/05/27 02:52:11;;;;;;;5.53;2.38;;;9.80;99.90;;;;;;6225389;28;20042;-77
2021/05/27 02:55:14;;;;;;;4.35;2.20;;;9.70;99.90;;;;;;6225370;28;20542;-77
2021/05/27 02:58:15;;;;;;;4.15;2.38;;;9.70;99.90;;;;;;6226375;28;20092;-77
2021/05/27 03:01:17;;;;;;;3.53;2.22;;;9.80;99.90;;;;;;6225212;28;20128;-77
2021/05/27 03:04:18;;;;;;;2.83;2.58;;;9.80;99.90;;;;;;6226341;28;20088;-77
2021/05/27 03:07:19;;;;;;;2.70;2.13;;;9.90;99.90;;;;;;6225423;28;20129;-77
2021/05/27 03:10:21;;;;;;;2.42;2.22;;;9.90;99.90;;;;;;6224953;28;20581;-77
2021/05/27 03:13:23;;;;;;;3.88;2.40;;;10.00;99.90;;;;;;6224859;28;20065;-77
2021/05/27 03:16:24;;;;;;;2.35;2.15;;;10.10;99.90;;;;;;6224793;28;20392;-77
2021/05/27 03:19:26;;;;;;;2.22;2.03;;;10.10;99.90;;;;;;6224768;28;20112;-77
2021/05/27 03:22:27;;;;;;;4.88;2.50;;;10.10;99.90;;;;;;6225796;28;20084;-77
2021/05/27 03:25:29;;;;;;;2.80;2.53;;;10.20;99.90;;;;;;6224793;28;20069;-77
2021/05/27 03:28:31;;;;;;;7.10;2.60;;;10.20;99.90;;;;;;6224435;28;20145;-77
2021/05/27 03:31:32;;;;;;;3.63;2.67;;;10.20;99.90;;;;;;6218118;28;20512;-77
2021/05/27 03:34:33;;;;;;;2.80;2.22;;;10.30;99.90;;;;;;6221225;28;20209;-77
2021/05/27 03:37:35;;;;;;;2.80;2.60;;;10.30;99.90;;;;;;6224178;28;20515;-77
2021/05/27 03:40:37;;;;;;;2.25;2.05;;;10.30;99.90;;;;;;6223992;28;20070;-77
2021/05/27 03:43:38;;;;;;;4.47;2.40;;;10.30;99.90;;;;;;6223630;28;20061;-77
2021/05/27 03:46:40;;;;;;;4.70;2.33;;;10.40;99.90;;;;;;6223989;28;20061;-77
2021/05/27 03:49:41;;;;;;;2.33;2.13;;;10.40;99.90;;;;;;6222778;28;20052;-76
2021/05/27 03:52:43;;;;;;;3.53;2.45;;;10.40;99.90;;;;;;6223547;28;20133;-77
2021/05/27 03:55:45;;;;;;;3.33;2.53;;;10.40;99.90;;;;;;6223230;28;20155;-78
2021/05/27 04:02:06;;;;;;;3.42;3.17;;;10.50;99.90;;;;;;6223282;28;20046;-76
2021/05/27 04:08:27;;;;;;;4.50;2.97;;;10.50;99.90;;;;;;6223092;28;20045;-78
2021/05/27 04:11:29;;;;;;;2.90;2.65;;;10.50;99.90;;;;;;6222938;28;20128;-77
2021/05/27 04:14:31;;;;;;;4.05;2.75;;;10.60;99.90;;;;;;6223797;28;20077;-77
2021/05/27 04:17:32;;;;;;;2.70;2.50;;;10.60;99.90;;;;;;6222856;28;20069;-77
2021/05/27 04:20:35;;;;;;;4.20;2.58;;;10.60;99.90;;;;;;6223286;28;20050;-77
2021/05/27 04:23:37;;;;;;;3.03;2.40;;;10.70;99.90;;;;;;6225620;28;20049;-77
2021/05/27 04:26:39;;;;;;;4.93;2.33;;;10.70;99.90;;;;;;6233348;28;20145;-77
2021/05/27 04:29:40;;;;;;;3.70;2.42;;;10.70;99.90;;;;;;6223451;28;20044;-77
2021/05/27 04:33:03;;;;;;;2.55;2.30;;;10.80;99.90;;;;;;6220220;28;20161;-77
2021/05/27 04:36:06;;;;;;;5.85;3.40;;;10.80;99.90;;;;;;6198546;28;20522;-77
2021/05/27 04:39:07;;;;;;;3.88;2.95;;;10.80;99.90;;;;;;6198672;28;20082;-77
2021/05/27 04:42:09;;;;;;;3.88;2.60;;;10.90;99.90;;;;;;6199009;28;20085;-77
2021/05/27 04:45:11;;;;;;;2.45;2.15;;;11.00;99.90;;;;;;6198523;28;20133;-77
2021/05/27 04:48:15;;;;;;;6.47;2.60;;;11.00;99.90;;;;;;6198781;28;20134;-77
2021/05/27 04:51:16;;;;;;;2.90;2.65;;;11.10;99.90;;;;;;6197795;28;20403;-76
2021/05/27 04:54:18;;;;;;;3.80;2.55;;;11.20;99.90;;;;;;6198433;28;20112;-76
2021/05/27 04:57:20;;;;;;;3.80;2.10;;;11.40;99.90;;;;;;6198641;28;20133;-77
2021/05/27 05:00:23;;;;;;;5.03;2.50;;;11.80;99.90;;;;;;6197490;28;20046;-77
2021/05/27 05:03:24;;;;;;;2.30;2.03;;;12.00;99.90;;;;;;6198711;28;20046;-77
2021/05/27 05:06:26;;;;;;;9.02;3.10;;;12.00;99.80;;;;;;6201325;28;20132;-77
2021/05/27 05:09:28;;;;;;;5.60;2.28;;;12.00;99.50;;;;;;6196570;28;20046;-77
2021/05/27 05:12:30;;;;;;;13.68;3.25;;;12.00;99.60;;;;;;6198526;28;20504;-77
2021/05/27 05:15:33;;;;;;;5.03;2.63;;;12.30;99.30;;;;;;6198305;28;20039;-77
2021/05/27 05:18:34;;;;;;;6.53;2.42;;;12.70;97.30;;;;;;6198970;28;20046;-76
2021/05/27 05:21:36;;;;;;;5.28;1.98;;;12.70;96.60;;;;;;6197407;28;20484;-76
2021/05/27 05:24:37;;;;;;;3.63;3.22;;;12.70;96.20;;;;;;6197971;28;20415;-76
2021/05/27 05:27:39;;;;;;;6.60;2.65;;;12.60;96.00;;;;;;6197675;28;20145;-77
2021/05/27 05:30:41;;;;;;;7.93;2.45;;;12.50;95.80;;;;;;6197442;28;20119;-76
2021/05/27 05:33:43;;;;;;;3.70;2.30;;;12.60;95.70;;;;;;6198449;28;20519;-77
2021/05/27 05:36:44;;;;;;;5.60;2.45;;;12.80;95.00;;;;;;6205938;28;20086;-77
2021/05/27 05:39:45;;;;;;;4.57;2.90;;;12.70;94.90;;;;;;6197144;28;20065;-77
2021/05/27 05:42:48;;;;;;;4.00;2.92;;;12.80;94.50;;;;;;6198374;28;20058;-77
2021/05/27 05:45:49;;;;;;;7.00;2.75;;;13.00;94.00;;;;;;6197373;28;20097;-77
2021/05/27 05:48:50;;;;;;;5.78;2.85;;;13.20;93.60;;;;;;6197190;28;20043;-77
2021/05/27 05:51:52;;;;;;;2.95;2.72;;;13.20;93.10;;;;;;6197296;28;20589;-76
2021/05/27 05:54:53;;;;;;;3.72;2.30;;;13.20;92.70;;;;;;6197485;28;20082;-77
2021/05/27 05:57:55;;;;;;;3.78;2.50;;;13.50;92.00;;;;;;6197500;28;20100;-77
2021/05/27 06:00:57;;;;;;;6.72;2.67;;;14.00;90.90;;;;;;6196870;28;20046;-77
2021/05/27 06:03:58;;;;;;;3.58;2.10;;;15.00;88.10;;;;;;6198703;28;20136;-77
2021/05/27 06:06:59;;;;;;;2.53;2.33;;;15.90;83.00;;;;;;6218669;28;20058;-77
2021/05/27 06:10:01;;;;;;;2.97;2.60;;;16.70;78.20;;;;;;6221595;28;20056;-77
2021/05/27 06:13:03;;;;;;;3.17;2.63;;;17.40;73.90;;;;;;6221250;28;20411;-77
2021/05/27 06:16:05;;;;;;;2.40;1.50;;;17.80;70.90;;;;;;6221413;28;20050;-77
2021/05/27 06:19:06;;;;;;;2.85;2.38;;;17.80;68.70;;;;;;6221608;28;20081;-77
2021/05/27 06:22:08;;;;;;;5.80;2.35;;;16.80;70.70;;;;;;6221749;28;20120;-77
2021/05/27 06:25:10;;;;;;;3.88;2.00;;;16.70;71.50;;;;;;6217079;28;20083;-77
2021/05/27 06:28:13;;;;;;;4.30;2.28;;;17.00;70.30;;;;;;6209442;28;20125;-77
2021/05/27 06:31:15;;;;;;;3.03;2.08;;;17.30;68.50;;;;;;6223430;28;20464;-77
2021/05/27 06:34:16;;;;;;;3.88;3.03;;;17.60;67.70;;;;;;6222857;28;20563;-77
2021/05/27 06:37:18;;;;;;;6.32;2.70;;;17.30;67.70;;;;;;6224756;28;20428;-76
2021/05/27 06:40:21;;;;;;;5.55;2.47;;;16.60;68.30;;;;;;6225565;28;20053;-77
2021/05/27 06:43:24;;;;;;;5.85;2.40;;;16.00;71.00;;;;;;6225952;28;20145;-76
2021/05/27 06:46:27;;;;;;;3.97;2.83;;;15.60;72.20;;;;;;6225953;28;20045;-77
2021/05/27 06:49:28;;;;;;;4.60;2.30;;;15.40;72.90;;;;;;6225000;28;20046;-77
2021/05/27 06:52:30;;;;;;;2.92;1.80;;;15.20;74.00;;;;;;6225426;28;20407;-76
2021/05/27 06:55:32;;;;;;;7.05;2.50;;;15.50;73.20;;;;;;6225846;28;20088;-76
2021/05/27 06:58:35;;;;;;;9.05;3.08;;;15.80;72.40;;;;;;6225615;28;20145;-77
2021/05/27 07:01:36;;;;;;;2.63;2.42;;;15.90;71.70;;;;;;6225266;28;20076;-77
2021/05/27 07:04:37;;;;;;;4.97;2.17;;;15.80;71.60;;;;;;6224705;28;20124;-77
2021/05/27 07:07:39;;;;;;;2.67;2.35;;;15.90;71.40;;;;;;6225174;28;20053;-76
2021/05/27 07:10:41;;;;;;;3.25;2.63;;;15.70;71.50;;;;;;6225179;28;20125;-77
2021/05/27 07:13:43;;;;;;;4.43;3.22;;;15.40;72.00;;;;;;6225621;28;20073;-77
2021/05/27 07:16:44;;;;;;;3.10;2.50;;;15.30;73.00;;;;;;6224908;28;20129;-77
2021/05/27 07:19:46;;;;;;;3.90;2.88;;;15.50;73.70;;;;;;6224610;28;20065;-77
2021/05/27 07:22:47;;;;;;;4.50;2.20;;;15.80;71.30;;;;;;6225785;28;20078;-77
2021/05/27 07:25:48;;;;;;;3.42;3.15;;;15.80;71.50;;;;;;6224869;28;20046;-77
2021/05/27 07:28:51;;;;;;;3.72;3.42;;;15.90;70.40;;;;;;6224304;28;20124;-76
2021/05/27 07:31:52;;;;;;;5.82;2.45;;;15.90;70.50;;;;;;6224534;28;20252;-76
2021/05/27 07:34:54;;;;;;;4.07;2.60;;;16.00;70.40;;;;;;6223462;28;20058;-78
2021/05/27 07:37:56;;;;;;;4.30;2.88;;;15.80;70.60;;;;;;6223664;28;20057;-76
2021/05/27 07:40:58;;;;;;;3.97;2.28;;;15.90;71.00;;;;;;6224065;28;20049;-76
2021/05/27 07:44:01;;;;;;;2.03;1.83;;;16.00;69.80;;;;;;6224363;28;20081;-76
2021/05/27 07:47:03;;;;;;;3.65;2.00;;;16.30;68.30;;;;;;6224379;28;20131;-77
2021/05/27 07:50:07;;;;;;;2.85;2.47;;;16.70;66.30;;;;;;6224685;28;20129;-78
2021/05/27 07:53:11;;;;;;;6.25;2.63;;;16.50;66.20;;;;;;6224128;28;20140;-76
2021/05/27 07:56:13;;;;;;;2.72;2.50;;;16.60;66.60;;;;;;6223931;28;20045;-76
2021/05/27 07:59:16;;;;;;;3.28;2.70;;;16.80;65.60;;;;;;6223442;28;20044;-76
2021/05/27 08:02:17;;;;;;;3.63;1.98;;;16.60;66.10;;;;;;6224298;28;20176;-77
2021/05/27 08:05:20;;;;;;;4.60;2.70;;;16.70;65.70;;;;;;6224005;28;20065;-76
2021/05/27 08:08:21;;;;;;;3.20;2.50;;;16.50;66.70;;;;;;6224703;28;20080;-76
2021/05/27 08:11:22;;;;;;;2.28;2.08;;;16.30;68.00;;;;;;6223724;28;20124;-76
2021/05/27 08:14:25;;;;;;;2.50;2.05;;;16.50;67.50;;;;;;6224717;28;20113;-76
2021/05/27 08:17:26;;;;;;;5.45;2.00;;;16.80;65.90;;;;;;6225483;28;20080;-76
2021/05/27 08:20:28;;;;;;;4.65;2.10;;;17.30;64.70;;;;;;6226937;28;20129;-76
2021/05/27 08:23:29;;;;;;;5.60;2.78;;;17.60;62.80;;;;;;6226912;28;20109;-76
2021/05/27 08:26:30;;;;;;;4.28;1.88;;;18.10;61.80;;;;;;6228322;28;20050;-77
2021/05/27 08:29:33;;;;;;;2.85;1.73;;;18.70;59.70;;;;;;6225479;28;20046;-76
2021/05/27 08:32:34;;;;;;;2.40;1.60;;;18.80;59.50;;;;;;6229145;28;20057;-76
2021/05/27 08:35:35;;;;;;;6.28;3.15;;;18.80;58.70;;;;;;6223993;28;20066;-77
2021/05/27 08:38:37;;;;;;;3.05;2.17;;;18.70;57.70;;;;;;6222368;28;20137;-77
2021/05/27 08:41:38;;;;;;;4.15;2.15;;;18.20;59.60;;;;;;6222929;28;20091;-77
2021/05/27 08:44:41;;;;;;;3.55;2.10;;;17.80;61.60;;;;;;6223160;28;20133;-76
2021/05/27 08:47:44;;;;;;;6.07;2.25;;;17.70;62.00;;;;;;6223006;28;20137;-77
2021/05/27 08:50:47;;;;;;;5.28;1.88;;;17.70;61.00;;;;;;6222854;28;20527;-77
2021/05/27 08:53:49;;;;;;;2.70;1.60;;;17.60;61.20;;;;;;6222504;28;20056;-76
2021/05/27 08:56:50;;;;;;;2.55;2.13;;;17.20;61.40;;;;;;6222655;28;20052;-77
2021/05/27 08:59:52;;;;;;;3.47;1.80;;;16.80;61.10;;;;;;6222280;28;20467;-77
2021/05/27 09:02:56;;;;;;;6.38;2.25;;;16.50;61.90;;;;;;6223557;28;20475;-77
2021/05/27 09:05:59;;;;;;;2.38;1.80;;;16.40;62.50;;;;;;6223290;28;20060;-77
2021/05/27 09:09:06;;;;;;;4.03;2.03;;;16.20;63.80;;;;;;6221894;28;20531;-77
2021/05/27 09:12:24;;;;;;;2.38;1.50;;;16.00;65.40;;;;;;6222606;28;20050;-77
2021/05/27 09:15:26;;;;;;;1.65;1.55;;;15.80;65.70;;;;;;6222535;28;20592;-78
2021/05/27 09:18:28;;;;;;;5.43;1.80;;;15.80;66.10;;;;;;6223411;28;20085;-76
2021/05/27 09:21:34;;;;;;;4.93;1.77;;;15.80;65.70;;;;;;6222823;28;20057;-77
2021/05/27 09:24:45;;;;;;;3.13;1.73;;;15.60;66.10;;;;;;6222431;28;20515;-77
2021/05/27 09:27:47;;;;;;;2.85;1.77;;;15.50;66.90;;;;;;6222259;28;20511;-77
2021/05/27 09:30:53;;;;;;;4.60;1.88;;;15.40;66.50;;;;;;6222338;28;20522;-77
2021/05/27 09:34:02;;;;;;;2.47;1.65;;;15.40;65.70;;;;;;6222774;28;20116;-77
2021/05/27 09:37:03;;;;;;;;;;;15.30;66.40;;;;;;6223048;28;20593;-77
2021/05/27 09:40:06;;;;;;;4.65;2.45;;;15.30;66.20;;;;;;6221783;28;20023;-77
2021/05/27 09:43:10;;;;;;;4.50;1.70;;;15.30;66.60;;;;;;6222303;28;20061;-77
2021/05/27 09:46:12;;;;;;;4.28;1.33;;;15.40;65.80;;;;;;6222761;28;20057;-77
2021/05/27 09:49:14;;;;;;;3.88;1.75;;;15.50;66.10;;;;;;6221785;28;20147;-77
2021/05/27 09:52:18;;;;;;;2.08;1.65;;;15.60;65.30;;;;;;6222636;28;20132;-77
2021/05/27 09:55:21;;;;;;;2.20;1.77;;;15.70;65.40;;;;;;6222894;28;20384;-77
2021/05/27 09:58:24;;;;;;;3.70;1.30;;;15.70;64.80;;;;;;6227304;28;20515;-77
2021/05/27 10:01:26;;;;;;;2.40;1.55;;;15.70;64.90;;;;;;6226330;28;20034;-77
2021/05/27 10:04:27;;;;;;;8.45;4.25;;;15.90;64.20;;;;;;6227028;28;20050;-77
2021/05/27 10:07:47;;;;;;;31.20;23.80;;;16.00;65.40;;;;;;6226749;28;20141;-77
2021/05/27 10:10:50;;;;;;;6.32;3.10;;;16.00;66.20;;;;;;6227419;28;20041;-77
2021/05/27 10:13:52;;;;;;;3.75;2.35;;;16.20;64.70;;;;;;6226634;28;20459;-77
2021/05/27 10:16:55;;;;;;;11.68;2.53;;;16.40;63.50;;;;;;6226477;28;20132;-76
2021/05/27 10:19:57;;;;;;;4.78;2.70;;;16.50;62.10;;;;;;6226448;28;20527;-76
2021/05/27 10:22:58;;;;;;;7.88;2.17;;;16.40;62.10;;;;;;6226331;28;20511;-77
2021/05/27 10:26:00;;;;;;;1.70;1.50;;;16.50;62.30;;;;;;6226740;28;20056;-77
2021/05/27 10:29:02;;;;;;;4.78;1.60;;;16.80;61.80;;;;;;6226472;28;20073;-77
2021/05/27 10:32:05;;;;;;;1.73;1.63;;;16.90;60.60;;;;;;6228065;28;20129;-78
2021/05/27 10:35:08;;;;;;;5.80;2.42;;;16.80;61.10;;;;;;6228141;28;20143;-78
2021/05/27 10:38:09;;;;;;;1.95;1.42;;;16.80;62.10;;;;;;6230826;28;20459;-78
2021/05/27 10:41:11;;;;;;;1.73;1.58;;;16.90;60.80;;;;;;6226958;28;20048;-78
2021/05/27 10:44:16;;;;;;;1.85;1.55;;;17.10;59.90;;;;;;6227660;28;20133;-77
2021/05/27 10:47:19;;;;;;;3.78;1.38;;;17.40;59.90;;;;;;6228310;28;20496;-78
2021/05/27 10:50:40;;;;;;;4.30;1.50;;;17.60;59.80;;;;;;6228511;28;20081;-78
2021/05/27 10:53:50;;;;;;;2.92;1.42;;;17.80;58.80;;;;;;6228314;28;20069;-78
2021/05/27 10:56:55;;;;;;;1.38;1.27;;;18.20;58.60;;;;;;6237030;28;20109;-78
2021/05/27 10:59:56;;;;;;;3.63;1.25;;;18.40;56.60;;;;;;6256781;28;20040;-77
2021/05/27 11:03:38;;;;;;;3.45;1.45;;;18.60;56.70;;;;;;6257076;28;20029;-77
2021/05/27 11:06:41;;;;;;;6.60;1.88;;;18.80;56.10;;;;;;6257157;28;20030;-77
2021/05/27 11:09:45;;;;;;;2.00;1.10;;;19.00;55.50;;;;;;6255823;28;20033;-77
2021/05/27 11:13:01;;;;;;;1.50;1.40;;;19.00;54.60;;;;;;6256103;28;20046;-78
2021/05/27 11:16:04;;;;;;;2.00;1.45;;;19.00;55.00;;;;;;6255619;28;20026;-76
2021/05/27 11:19:41;;;;;;;2.17;1.48;;;18.80;54.20;;;;;;6254682;28;20030;-77
2021/05/27 11:22:54;;;;;;;1.67;1.33;;;18.70;55.20;;;;;;6253690;28;20061;-77
2021/05/27 11:26:16;;;;;;;2.42;1.48;;;18.30;55.60;;;;;;6227072;28;20503;-77
2021/05/27 11:29:18;;;;;;;2.17;1.25;;;18.30;56.50;;;;;;6226115;28;20205;-77
2021/05/27 11:32:34;;;;;;;5.63;1.63;;;18.70;56.00;;;;;;6225579;28;20432;-77
2021/05/27 11:35:43;;;;;;;2.03;1.38;;;19.00;54.60;;;;;;6225224;28;20128;-77
2021/05/27 11:38:46;;;;;;;3.95;1.38;;;19.20;54.70;;;;;;6225107;28;20145;-77
2021/05/27 11:41:48;;;;;;;1.95;1.35;;;19.30;54.30;;;;;;6221419;28;20050;-78
2021/05/27 11:44:56;;;;;;;1.42;1.17;;;19.50;52.40;;;;;;6227311;28;20132;-77
2021/05/27 11:48:13;;;;;;;3.08;1.40;;;19.50;52.80;;;;;;6224689;28;20073;-77
2021/05/27 11:51:16;;;;;;;3.65;1.42;;;19.20;53.80;;;;;;6227437;28;20103;-78
2021/05/27 11:54:18;;;;;;;7.18;1.35;;;19.00;55.00;;;;;;6226692;28;20050;-78
2021/05/27 11:57:20;;;;;;;3.97;1.38;;;19.00;54.60;;;;;;6225538;28;20153;-78
2021/05/27 12:00:22;;;;;;;4.05;1.60;;;19.10;54.60;;;;;;6224323;28;20049;-78
2021/05/27 12:03:23;;;;;;;4.47;1.20;;;19.30;54.40;;;;;;6226314;28;20073;-78
2021/05/27 12:06:25;;;;;;;3.88;1.27;;;19.30;54.30;;;;;;6225338;28;20545;-77
2021/05/27 12:09:32;;;;;;;1.63;1.10;;;19.00;54.10;;;;;;6223759;28;20137;-77
2021/05/27 12:12:36;;;;;;;3.58;1.38;;;18.60;54.60;;;;;;6224339;28;20057;-78
2021/05/27 12:15:42;;;;;;;5.70;1.30;;;18.40;55.70;;;;;;6224491;28;20127;-77
2021/05/27 12:18:43;;;;;;;1.58;1.20;;;18.40;56.30;;;;;;6224155;28;20140;-77
2021/05/27 12:21:53;;;;;;;2.42;1.30;;;18.30;56.80;;;;;;6224106;28;20125;-77
2021/05/27 12:25:06;;;;;;;2.22;1.10;;;18.40;56.10;;;;;;6225106;28;20527;-77
2021/05/27 12:28:14;;;;;;;1.98;1.50;;;18.50;56.10;;;;;;6224414;28;20081;-78
2021/05/27 12:31:16;;;;;;;2.42;1.70;;;18.80;55.90;;;;;;6226434;28;20119;-78
2021/05/27 12:34:20;;;;;;;2.95;1.70;;;19.00;55.60;;;;;;6226214;28;20141;-78
2021/05/27 12:37:37;;;;;;;2.13;1.55;;;18.90;54.80;;;;;;6225402;28;20042;-78
2021/05/27 12:40:40;;;;;;;2.65;1.95;;;18.70;56.20;;;;;;6224219;28;20073;-78
2021/05/27 12:43:48;;;;;;;1.63;1.17;;;18.50;55.80;;;;;;6205683;28;20508;-77
2021/05/27 12:46:49;;;;;;;4.40;1.52;;;18.50;55.00;;;;;;6215696;28;20096;-76
2021/05/27 12:49:52;;;;;;;2.15;1.25;;;18.40;55.80;;;;;;6200511;28;20054;-77
2021/05/27 12:52:54;;;;;;;6.32;2.25;;;18.10;56.70;;;;;;6200564;28;20050;-78
2021/05/27 12:55:58;;;;;;;2.45;1.33;;;17.70;57.60;;;;;;6199953;28;20120;-78
2021/05/27 12:59:08;;;;;;;3.83;2.83;;;17.50;57.70;;;;;;6199324;28;20133;-78
2021/05/27 13:02:10;;;;;;;6.55;3.95;;;17.30;58.20;;;;;;6201163;28;20054;-78
2021/05/27 13:05:16;;;;;;;8.07;6.53;;;17.30;58.60;;;;;;6198485;28;20050;-78
2021/05/27 13:08:17;;;;;;;2.83;1.20;;;17.60;58.10;;;;;;6199632;28;20113;-77
2021/05/27 13:11:26;;;;;;;12.25;11.05;;;17.90;58.10;;;;;;6198629;28;20519;-77
2021/05/27 13:14:28;;;;;;;8.88;6.25;;;17.90;57.70;;;;;;6217225;28;20053;-78
2021/05/27 13:17:29;;;;;;;7.20;6.32;;;17.80;56.90;;;;;;6224602;28;20129;-79
2021/05/27 13:20:31;;;;;;;14.00;12.15;;;17.60;57.30;;;;;;6223996;28;20650;-78
2021/05/27 13:23:34;;;;;;;5.15;4.47;;;17.50;57.00;;;;;;6222530;28;20072;-77
2021/05/27 13:26:37;;;;;;;6.68;5.90;;;17.50;57.30;;;;;;6222749;28;20046;-78
2021/05/27 13:29:50;;;;;;;3.83;1.02;;;17.70;56.10;;;;;;6223164;28;20100;-78
2021/05/27 13:33:02;;;;;;;3.47;3.17;;;18.10;56.10;;;;;;6227732;28;20177;-78
2021/05/27 13:36:05;;;;;;;8.35;7.65;;;18.60;55.20;;;;;;6228360;28;20081;-77
2021/05/27 13:39:17;;;;;;;2.33;2.20;;;19.00;54.00;;;;;;6226913;28;20125;-77
2021/05/27 13:42:19;;;;;;;3.20;2.90;;;19.00;54.20;;;;;;6225847;28;20177;-77
2021/05/27 13:45:22;;;;;;;3.47;2.58;;;18.90;54.20;;;;;;6222633;28;20073;-77
2021/05/27 13:48:24;;;;;;;4.82;2.65;;;19.00;54.80;;;;;;6226883;28;20120;-78
2021/05/27 13:51:25;;;;;;;12.23;7.55;;;19.10;54.00;;;;;;6226343;28;20538;-77
2021/05/27 13:54:26;;;;;;;5.13;3.58;;;19.00;54.10;;;;;;6227455;28;20108;-77
2021/05/27 13:57:29;;;;;;;1.65;1.50;;;18.70;54.40;;;;;;6230195;28;20045;-78
2021/05/27 14:00:31;;;;;;;2.83;2.25;;;18.50;55.40;;;;;;6229087;28;20061;-79
2021/05/27 14:03:33;;;;;;;3.38;1.92;;;18.30;55.60;;;;;;6230559;28;20046;-79
2021/05/27 14:06:36;;;;;;;2.47;1.50;;;18.20;55.70;;;;;;6231007;28;20132;-78
2021/05/27 14:09:37;;;;;;;2.00;1.83;;;18.20;56.60;;;;;;6227496;28;20057;-77
2021/05/27 14:12:41;;;;;;;6.60;6.07;;;18.30;56.90;;;;;;6228302;28;20730;-78
2021/05/27 14:15:42;;;;;;;3.20;2.90;;;18.30;57.00;;;;;;6228202;28;20184;-78
2021/05/27 14:18:43;;;;;;;6.82;4.82;;;18.20;56.80;;;;;;6227951;28;20425;-78
2021/05/27 14:21:45;;;;;;;3.05;1.10;;;18.20;56.50;;;;;;6231504;28;20049;-78
2021/05/27 14:24:46;;;;;;;1.98;1.20;;;18.30;56.60;;;;;;6232765;28;20129;-78
2021/05/27 14:27:48;;;;;;;1.42;1.30;;;18.40;56.00;;;;;;6227049;28;20077;-78
2021/05/27 14:30:50;;;;;;;6.30;2.40;;;18.60;55.90;;;;;;6228347;28;20077;-78
2021/05/27 14:33:51;;;;;;;3.30;1.42;;;18.70;55.20;;;;;;6227479;28;20050;-78
2021/05/27 14:36:52;;;;;;;2.30;1.42;;;18.70;54.70;;;;;;6227179;28;20078;-78
2021/05/27 14:39:54;;;;;;;1.73;1.17;;;18.60;54.50;;;;;;6228568;28;20076;-78
2021/05/27 14:42:56;;;;;;;1.40;1.23;;;18.50;55.40;;;;;;6227173;28;20046;-78
2021/05/27 14:45:57;;;;;;;2.67;1.02;;;18.30;56.10;;;;;;6231248;28;20050;-77
2021/05/27 14:48:59;;;;;;;1.33;1.23;;;18.10;56.90;;;;;;6227482;28;20082;-78
2021/05/27 14:52:00;;;;;;;1.92;1.00;;;18.10;57.00;;;;;;6229549;28;20109;-78
2021/05/27 14:55:01;;;;;;;2.33;1.35;;;18.20;57.70;;;;;;6228868;28;20081;-76
2021/05/27 14:58:04;;;;;;;2.90;1.30;;;18.40;57.10;;;;;;6228233;28;20054;-77
2021/05/27 15:01:05;;;;;;;4.82;2.33;;;18.50;56.60;;;;;;6225459;28;20445;-77
2021/05/27 15:04:06;;;;;;;1.10;1.00;;;18.70;55.90;;;;;;6225387;28;20050;-75
2021/05/27 15:07:08;;;;;;;2.78;1.30;;;18.90;56.40;;;;;;6225575;28;20169;-77
2021/05/27 15:10:10;;;;;;;2.60;2.40;;;19.10;54.30;;;;;;6224971;28;20086;-77
2021/05/27 15:13:13;;;;;;;1.08;0.93;;;19.40;52.70;;;;;;6224316;28;20121;-76
2021/05/27 15:16:14;;;;;;;1.45;0.98;;;19.40;51.90;;;;;;6225021;28;20041;-77
2021/05/27 15:19:15;;;;;;;2.22;1.75;;;19.50;52.30;;;;;;6224682;28;20057;-77
2021/05/27 15:22:17;;;;;;;3.05;1.00;;;19.50;51.70;;;;;;6225084;28;20077;-77
2021/05/27 15:25:20;;;;;;;1.50;1.20;;;19.50;52.10;;;;;;6224899;28;20076;-77
2021/05/27 15:28:23;;;;;;;1.48;1.02;;;19.60;51.90;;;;;;6225580;28;20057;-77
2021/05/27 15:31:24;;;;;;;1.60;1.20;;;19.50;51.80;;;;;;6224456;28;20076;-77
2021/05/27 15:34:26;;;;;;;1.95;0.93;;;19.50;52.70;;;;;;6225513;28;20077;-77
2021/05/27 15:37:28;;;;;;;1.83;1.08;;;19.40;52.40;;;;;;6225139;28;20046;-77
2021/05/27 15:40:30;;;;;;;1.83;1.73;;;19.40;53.30;;;;;;6224438;28;20444;-77
2021/05/27 15:43:32;;;;;;;8.63;7.82;;;19.40;53.90;;;;;;6224788;28;20080;-77
2021/05/27 15:46:34;;;;;;;22.58;16.48;;;19.40;54.30;;;;;;6221302;28;20558;-77
2021/05/27 15:49:36;;;;;;;7.40;6.70;;;19.30;54.00;;;;;;6224163;28;20077;-77
2021/05/27 15:52:37;;;;;;;4.70;3.42;;;19.10;54.10;;;;;;6223716;28;20133;-77
2021/05/27 15:55:39;;;;;;;3.92;2.90;;;18.90;54.10;;;;;;6223622;28;20093;-77
2021/05/27 15:58:41;;;;;;;1.27;1.00;;;18.70;54.00;;;;;;6224568;28;20088;-77
2021/05/27 16:01:43;;;;;;;1.27;1.02;;;18.60;53.40;;;;;;6224902;28;20125;-77
2021/05/27 16:04:44;;;;;;;1.27;0.80;;;18.50;53.70;;;;;;6223896;28;20510;-77